Harnell Park, Minnesota
Current Conditions -  °F | °C
As of 5:55 AM on Friday 19 Dec 2014 (Local Time) from KDLH Reporting Station
Overcast Overcast  
Wind Chill: 11°   Ceiling: 400
Heat Index: 20°   Visibility: 7mi
Dew Point: 17°   Wind: 7mph
Humidity: 89%   Direction: 220°SW
Pressure: 30.19"   Gusts: NA
Location:  46.8859°N, 92.4258°W
Report Text: KDLH 191155Z 22006KT 7SM OVC004 M07/M08 A3019 RMK AO2 SLP252 60000 I6000 T10671083 11056 21067 56007
Loading
Personal Weather Stations






























Interactive Weather Map New forecast layout! Learn more

10-Day Weather Forecast

Advertisements
Track Severe Weather on mobile